createdAt,value
2019-04-07T00:01:45.038Z,11.90
2019-04-07T00:04:13.459Z,11.90
2019-04-07T00:06:41.882Z,11.90
2019-04-07T00:09:10.812Z,11.90
2019-04-07T00:11:39.675Z,11.90
2019-04-07T00:14:08.349Z,12.00
2019-04-07T00:16:37.312Z,12.00
2019-04-07T00:19:05.725Z,11.90
2019-04-07T00:21:34.096Z,12.00
2019-04-07T00:24:02.539Z,12.00
2019-04-07T00:26:31.155Z,12.00
2019-04-07T00:28:59.969Z,12.00
2019-04-07T00:31:28.924Z,12.00
2019-04-07T00:33:58.155Z,12.00
2019-04-07T00:36:26.638Z,12.00
2019-04-07T00:38:55.038Z,11.90
2019-04-07T00:41:23.477Z,12.00
2019-04-07T00:43:51.903Z,11.90
2019-04-07T00:46:20.304Z,12.00
2019-04-07T00:48:48.711Z,12.00
2019-04-07T00:51:17.831Z,12.00
2019-04-07T00:53:46.385Z,12.10
2019-04-07T00:56:14.699Z,12.10
2019-04-07T00:58:43.456Z,12.10
2019-04-07T01:01:14.035Z,12.20
2019-04-07T01:03:43.036Z,12.20
2019-04-07T01:06:11.570Z,12.20
2019-04-07T01:08:40.036Z,12.20
2019-04-07T01:11:08.870Z,12.20
2019-04-07T01:13:37.376Z,12.20
2019-04-07T01:16:05.750Z,12.20
2019-04-07T01:18:34.146Z,12.20
2019-04-07T01:21:02.569Z,12.20
2019-04-07T01:23:31.430Z,12.20
2019-04-07T01:25:59.896Z,12.20
2019-04-07T01:28:28.626Z,12.20
2019-04-07T01:30:56.978Z,12.20
2019-04-07T01:33:25.658Z,12.20
2019-04-07T01:35:54.877Z,12.20
2019-04-07T01:38:23.278Z,12.10
2019-04-07T01:41:12.140Z,12.10
2019-04-07T01:43:44.979Z,12.10
2019-04-07T01:46:20.640Z,12.10
2019-04-07T01:49:06.660Z,12.00
2019-04-07T01:51:43.226Z,12.00
2019-04-07T01:54:29.628Z,12.00
2019-04-07T01:57:02.982Z,12.00
2019-04-07T01:59:39.280Z,11.90
2019-04-07T02:02:18.921Z,12.00
2019-04-07T02:05:07.571Z,11.90
2019-04-07T02:07:50.147Z,12.00
2019-04-07T02:10:29.150Z,11.90
2019-04-07T02:13:05.234Z,11.90
2019-04-07T02:15:52.675Z,11.90
2019-04-07T02:18:23.444Z,11.90
2019-04-07T02:20:54.191Z,11.90
2019-04-07T02:23:27.233Z,11.90
2019-04-07T02:26:07.022Z,11.80
2019-04-07T02:28:37.254Z,11.80
2019-04-07T02:31:17.144Z,11.90
2019-04-07T02:33:50.012Z,11.80
2019-04-07T02:36:28.415Z,11.80
2019-04-07T02:38:58.192Z,11.80
2019-04-07T02:41:34.516Z,11.80
2019-04-07T02:44:04.925Z,11.80
2019-04-07T02:46:38.229Z,11.80
2019-04-07T02:49:12.313Z,11.80
2019-04-07T02:51:43.442Z,11.70
2019-04-07T02:54:30.262Z,11.70
2019-04-07T02:57:09.968Z,11.80
2019-04-07T02:59:56.268Z,11.70
2019-04-07T03:02:32.194Z,11.70
2019-04-07T03:05:14.295Z,11.70
2019-04-07T03:07:54.926Z,11.70
2019-04-07T03:10:41.549Z,11.70
2019-04-07T03:13:24.318Z,11.60
2019-04-07T03:15:57.761Z,11.60
2019-04-07T03:18:37.421Z,11.50
2019-04-07T03:21:25.336Z,11.50
2019-04-07T03:23:58.563Z,11.50
2019-04-07T03:26:34.583Z,11.40
2019-04-07T03:29:10.313Z,11.80
2019-04-07T03:31:41.070Z,11.40
2019-04-07T03:34:18.974Z,11.30
2019-04-07T03:37:19.113Z,11.30
2019-04-07T03:39:30.234Z,11.20
2019-04-07T03:42:17.819Z,11.20
2019-04-07T03:44:51.182Z,11.10
2019-04-07T03:47:27.014Z,11.10
2019-04-07T03:50:03.379Z,11.10
2019-04-07T03:52:51.820Z,11.10
2019-04-07T03:55:22.733Z,11.10
2019-04-07T03:58:09.873Z,11.10
2019-04-07T04:00:55.113Z,11.10
2019-04-07T04:03:25.689Z,11.10
2019-04-07T04:05:55.844Z,11.10
2019-04-07T04:08:38.295Z,11.10
2019-04-07T04:11:11.644Z,11.20
2019-04-07T04:13:42.329Z,11.20
2019-04-07T04:16:10.774Z,11.20
2019-04-07T04:18:39.366Z,11.20
2019-04-07T04:21:07.815Z,11.20
2019-04-07T04:23:36.217Z,11.20
2019-04-07T04:26:04.632Z,11.20
2019-04-07T04:28:33.096Z,11.20
2019-04-07T04:31:01.504Z,11.20
2019-04-07T04:33:30.976Z,11.20
2019-04-07T04:36:00.462Z,11.20
2019-04-07T04:38:29.786Z,11.30
2019-04-07T04:40:58.348Z,11.20
2019-04-07T04:43:27.543Z,11.20
2019-04-07T04:45:56.758Z,11.20
2019-04-07T04:48:25.926Z,11.20
2019-04-07T04:50:54.447Z,11.20
2019-04-07T04:53:24.083Z,11.20
2019-04-07T04:55:53.432Z,11.20
2019-04-07T04:58:22.748Z,11.20
2019-04-07T05:00:52.328Z,11.30
2019-04-07T05:03:21.569Z,11.30
2019-04-07T05:05:49.989Z,11.30
2019-04-07T05:08:18.412Z,11.30
2019-04-07T05:10:47.327Z,11.30
2019-04-07T05:13:15.999Z,11.40
2019-04-07T05:15:44.593Z,11.40
2019-04-07T05:18:13.086Z,11.40
2019-04-07T05:20:42.032Z,11.40
2019-04-07T05:23:11.018Z,11.40
2019-04-07T05:25:39.427Z,11.40
2019-04-07T05:28:07.824Z,11.50
2019-04-07T05:30:36.558Z,11.50
2019-04-07T05:33:05.545Z,11.60
2019-04-07T05:35:34.208Z,11.60
2019-04-07T05:38:04.977Z,11.70
2019-04-07T05:40:32.716Z,11.80
2019-04-07T05:43:01.108Z,11.80
2019-04-07T05:45:29.506Z,12.00
2019-04-07T05:47:57.922Z,12.00
2019-04-07T05:50:27.436Z,12.10
2019-04-07T05:52:56.540Z,12.10
2019-04-07T05:55:24.965Z,12.20
2019-04-07T05:57:53.376Z,12.30
2019-04-07T06:00:21.860Z,12.40
2019-04-07T06:02:50.786Z,12.40
2019-04-07T06:05:19.660Z,12.40
2019-04-07T06:07:48.085Z,12.40
2019-04-07T06:10:16.674Z,12.40
2019-04-07T06:12:47.369Z,12.40
2019-04-07T06:15:19.247Z,12.40
2019-04-07T06:17:45.798Z,12.30
2019-04-07T06:20:15.801Z,12.30
2019-04-07T06:22:46.648Z,12.30
2019-04-07T06:25:14.303Z,12.30
2019-04-07T06:27:45.248Z,12.40
2019-04-07T06:30:14.214Z,12.50
2019-04-07T06:32:44.048Z,12.50
2019-04-07T06:35:13.945Z,12.70
2019-04-07T06:37:42.953Z,12.70
2019-04-07T06:40:12.247Z,12.80
2019-04-07T06:42:40.844Z,12.80
2019-04-07T06:45:10.930Z,12.80
2019-04-07T06:47:40.930Z,12.90
2019-04-07T06:50:25.903Z,12.80
2019-04-07T06:52:56.598Z,12.80
2019-04-07T06:55:42.855Z,12.80
2019-04-07T06:58:28.813Z,12.80
2019-04-07T07:01:03.179Z,12.90
2019-04-07T07:03:43.075Z,12.90
2019-04-07T07:06:17.384Z,12.90
2019-04-07T07:09:06.254Z,12.90
2019-04-07T07:11:40.854Z,13.00
2019-04-07T07:14:08.054Z,13.10
2019-04-07T07:16:54.509Z,13.10
2019-04-07T07:19:40.169Z,13.20
2019-04-07T07:22:17.365Z,13.20
2019-04-07T07:24:47.160Z,13.20
2019-04-07T07:27:16.403Z,13.30
2019-04-07T07:29:45.833Z,13.30
2019-04-07T07:32:14.929Z,13.30
2019-04-07T07:34:43.448Z,13.40
2019-04-07T07:37:11.849Z,13.50
2019-04-07T07:39:43.765Z,13.60
2019-04-07T07:42:10.554Z,13.60
2019-04-07T07:44:39.828Z,13.70
2019-04-07T07:47:09.048Z,13.70
2019-04-07T07:49:40.283Z,13.80
2019-04-07T07:52:07.572Z,13.90
2019-04-07T07:54:36.778Z,14.00
2019-04-07T07:57:05.293Z,14.20
2019-04-07T07:59:37.877Z,14.30
2019-04-07T08:02:03.842Z,14.40
2019-04-07T08:04:32.212Z,14.50
2019-04-07T08:07:02.363Z,14.60
2019-04-07T08:09:30.716Z,14.70
2019-04-07T08:12:02.439Z,14.70
2019-04-07T08:14:29.346Z,14.80
2019-04-07T08:17:00.163Z,14.90
2019-04-07T08:19:30.320Z,14.90
2019-04-07T08:21:58.435Z,15.00
2019-04-07T08:24:27.226Z,15.10
2019-04-07T08:26:57.117Z,15.20
2019-04-07T08:29:25.815Z,15.30
2019-04-07T08:31:55.427Z,15.40
2019-04-07T08:34:24.346Z,15.50
2019-04-07T08:36:53.028Z,15.60
2019-04-07T08:39:25.641Z,15.80
2019-04-07T08:41:51.814Z,15.90
2019-04-07T08:44:20.478Z,16.00
2019-04-07T08:46:49.638Z,16.10
2019-04-07T08:49:18.138Z,16.20
2019-04-07T08:51:46.521Z,16.20
2019-04-07T08:54:17.605Z,16.20
2019-04-07T08:56:45.695Z,16.30
2019-04-07T08:59:16.968Z,16.30
2019-04-07T09:01:44.653Z,16.30
2019-04-07T09:04:15.080Z,16.30
2019-04-07T09:06:43.824Z,16.30
2019-04-07T09:09:12.292Z,16.30
2019-04-07T09:11:41.621Z,16.40
2019-04-07T09:14:10.920Z,16.50
2019-04-07T09:16:46.732Z,16.50
2019-04-07T09:19:19.257Z,16.60
2019-04-07T09:22:04.429Z,16.60
2019-04-07T09:24:50.825Z,16.70
2019-04-07T09:27:24.603Z,16.80
2019-04-07T09:30:10.180Z,16.90
2019-04-07T09:32:41.634Z,16.90
2019-04-07T09:35:14.465Z,17.20
2019-04-07T09:37:53.348Z,17.30
2019-04-07T09:40:22.229Z,17.40
2019-04-07T09:42:52.956Z,17.50
2019-04-07T09:45:39.552Z,17.50
2019-04-07T09:48:12.420Z,17.60
2019-04-07T09:50:43.105Z,17.70
2019-04-07T09:53:13.795Z,17.80
2019-04-07T09:55:51.532Z,17.80
2019-04-07T09:58:30.885Z,17.90
2019-04-07T10:01:06.098Z,18.00
2019-04-07T10:03:35.473Z,18.10
2019-04-07T10:06:12.961Z,18.10
2019-04-07T10:08:49.533Z,18.20
2019-04-07T10:11:19.774Z,18.30
2019-04-07T10:14:06.334Z,18.40
2019-04-07T10:16:39.478Z,18.50
2019-04-07T10:19:12.988Z,18.50
2019-04-07T10:21:49.770Z,18.50
2019-04-07T10:24:19.924Z,18.60
2019-04-07T10:27:05.829Z,18.60
2019-04-07T10:29:48.162Z,18.70
2019-04-07T10:32:25.802Z,18.70
2019-04-07T10:35:12.568Z,18.80
2019-04-07T10:37:42.856Z,18.80
2019-04-07T10:40:27.526Z,18.90
2019-04-07T10:43:09.632Z,19.00
2019-04-07T10:45:45.924Z,19.10
2019-04-07T10:48:16.069Z,19.20
2019-04-07T10:50:58.093Z,19.20
2019-04-07T10:53:30.333Z,19.30
2019-04-07T10:56:16.519Z,19.30
2019-04-07T10:58:47.199Z,19.40
2019-04-07T11:01:20.083Z,19.50
2019-04-07T11:03:54.766Z,19.60
2019-04-07T11:06:28.413Z,19.60
2019-04-07T11:09:16.814Z,19.70
2019-04-07T11:11:48.902Z,19.80
2019-04-07T11:14:35.054Z,19.80
2019-04-07T11:17:06.414Z,19.90
2019-04-07T11:19:39.779Z,20.00
2019-04-07T11:22:15.920Z,20.10
2019-04-07T11:24:48.943Z,20.10
2019-04-07T11:27:35.419Z,20.20
2019-04-07T11:30:10.315Z,20.30
2019-04-07T11:32:43.464Z,20.30
2019-04-07T11:35:19.570Z,20.50
2019-04-07T11:38:01.515Z,20.60
2019-04-07T11:40:48.981Z,20.70
2019-04-07T11:43:15.277Z,20.70
2019-04-07T11:46:00.227Z,20.80
2019-04-07T11:48:26.022Z,20.90
2019-04-07T11:51:02.096Z,20.90
2019-04-07T11:53:32.963Z,21.00
2019-04-07T11:56:11.277Z,21.10
2019-04-07T11:58:40.885Z,21.30
2019-04-07T12:01:27.076Z,21.30
2019-04-07T12:03:59.992Z,21.50
2019-04-07T12:06:30.045Z,21.70
2019-04-07T12:09:18.357Z,21.80
2019-04-07T12:11:48.415Z,21.80
2019-04-07T12:14:21.179Z,21.90
2019-04-07T12:17:04.778Z,21.90
2019-04-07T12:19:40.994Z,22.00
2019-04-07T12:22:14.309Z,22.10
2019-04-07T12:24:46.836Z,22.20
2019-04-07T12:27:17.255Z,22.30
2019-04-07T12:29:47.366Z,22.30
2019-04-07T12:32:23.892Z,22.30
2019-04-07T12:34:56.637Z,22.40
2019-04-07T12:37:42.030Z,22.50
2019-04-07T12:40:20.496Z,22.50
2019-04-07T12:42:51.257Z,22.60
2019-04-07T12:45:37.038Z,22.60
2019-04-07T12:48:10.266Z,22.70
2019-04-07T12:50:40.331Z,22.80
2019-04-07T12:53:19.721Z,23.00
2019-04-07T12:56:06.993Z,23.00
2019-04-07T12:58:55.952Z,23.00
2019-04-07T13:01:26.049Z,23.10
2019-04-07T13:04:13.262Z,23.10
2019-04-07T13:06:49.421Z,23.20
2019-04-07T13:09:32.064Z,23.30
2019-04-07T13:12:20.422Z,23.30
2019-04-07T13:14:50.985Z,23.30
2019-04-07T13:17:38.124Z,23.40
2019-04-07T13:20:08.585Z,23.50
2019-04-07T13:25:53.165Z,23.50
2019-04-07T13:28:21.690Z,23.70
2019-04-07T13:31:00.458Z,23.70
2019-04-07T13:33:46.875Z,23.80
2019-04-07T13:36:20.265Z,23.70
2019-04-07T13:38:56.290Z,23.80
2019-04-07T13:41:42.577Z,23.80
2019-04-07T13:44:19.734Z,23.80
2019-04-07T13:47:07.268Z,23.80
2019-04-07T13:49:50.177Z,23.90
2019-04-07T13:52:23.210Z,24.00
2019-04-07T13:55:07.701Z,24.00
2019-04-07T13:57:40.347Z,24.10
2019-04-07T14:00:17.397Z,24.10
2019-04-07T14:02:47.849Z,24.00
2019-04-07T14:05:33.163Z,24.10
2019-04-07T14:08:27.025Z,24.20
2019-04-07T14:10:58.249Z,24.20
2019-04-07T14:13:28.489Z,24.20
2019-04-07T14:15:58.677Z,24.30
2019-04-07T14:18:50.161Z,24.40
2019-04-07T14:21:30.712Z,24.50
2019-04-07T14:24:01.654Z,24.60
2019-04-07T14:26:38.857Z,24.70
2019-04-07T14:29:15.275Z,25.10
2019-04-07T14:32:02.067Z,25.40
2019-04-07T14:34:39.111Z,25.70
2019-04-07T14:37:25.290Z,25.80
2019-04-07T14:39:55.463Z,26.00
2019-04-07T14:42:26.323Z,26.00
2019-04-07T14:45:02.364Z,25.50
2019-04-07T14:47:32.486Z,25.40
2019-04-07T14:50:02.506Z,25.30
2019-04-07T14:52:48.208Z,25.10
2019-04-07T14:55:53.828Z,24.90
2019-04-07T14:58:38.832Z,24.60
2019-04-07T15:01:14.735Z,24.50
2019-04-07T15:03:43.824Z,24.00
2019-04-07T15:06:12.270Z,23.60
2019-04-07T15:08:43.086Z,23.30
2019-04-07T15:11:29.742Z,23.00
2019-04-07T15:14:00.655Z,22.80
2019-04-07T15:16:28.574Z,22.60
2019-04-07T15:18:56.996Z,22.80
2019-04-07T15:21:25.435Z,22.90
2019-04-07T15:23:53.799Z,22.90
2019-04-07T15:26:22.203Z,22.90
2019-04-07T15:28:50.600Z,23.30
2019-04-07T15:31:19.523Z,23.60
2019-04-07T15:33:49.733Z,23.40
2019-04-07T15:36:19.561Z,23.50
2019-04-07T15:38:48.612Z,23.40
2019-04-07T15:41:19.059Z,23.10
2019-04-07T15:43:47.150Z,22.70
2019-04-07T15:46:18.129Z,22.30
2019-04-07T15:48:46.502Z,22.20
2019-04-07T15:51:14.994Z,22.30
2019-04-07T15:53:48.469Z,22.50
2019-04-07T15:56:16.162Z,22.50
2019-04-07T15:58:43.460Z,22.50
2019-04-07T16:01:12.217Z,22.60
2019-04-07T16:03:40.550Z,22.60
2019-04-07T16:06:09.675Z,22.40
2019-04-07T16:08:39.391Z,22.20
2019-04-07T16:11:08.115Z,22.10
2019-04-07T16:13:36.495Z,22.00
2019-04-07T16:16:05.784Z,22.00
2019-04-07T16:18:36.883Z,22.00
2019-04-07T16:21:07.180Z,22.00
2019-04-07T16:23:35.180Z,22.00
2019-04-07T16:26:03.628Z,22.00
2019-04-07T16:28:33.034Z,21.90
2019-04-07T16:31:01.596Z,21.90
2019-04-07T16:33:32.570Z,21.80
2019-04-07T16:36:00.097Z,21.70
2019-04-07T16:38:30.140Z,21.70
2019-04-07T16:40:58.827Z,21.60
2019-04-07T16:43:28.644Z,21.50
2019-04-07T16:45:57.264Z,21.50
2019-04-07T16:48:26.114Z,21.50
2019-04-07T16:50:55.299Z,21.40
2019-04-07T16:53:24.746Z,21.40
2019-04-07T16:55:55.573Z,21.40
2019-04-07T16:58:23.215Z,21.40
2019-04-07T17:00:51.800Z,21.40
2019-04-07T17:03:20.493Z,21.40
2019-04-07T17:05:48.995Z,21.40
2019-04-07T17:08:19.672Z,21.40
2019-04-07T17:10:47.433Z,21.40
2019-04-07T17:13:20.552Z,21.30
2019-04-07T17:15:45.885Z,21.30
2019-04-07T17:18:36.758Z,21.10
2019-04-07T17:21:09.412Z,21.00
2019-04-07T17:23:39.630Z,20.80
2019-04-07T17:26:08.186Z,20.60
2019-04-07T17:28:36.603Z,20.40
2019-04-07T17:31:05.845Z,20.20
2019-04-07T17:33:36.831Z,20.00
2019-04-07T17:36:04.523Z,19.90
2019-04-07T17:38:38.135Z,19.70
2019-04-07T17:41:08.277Z,19.70
2019-04-07T17:43:51.497Z,19.60
2019-04-07T17:46:16.667Z,19.50
2019-04-07T17:48:58.373Z,19.50
2019-04-07T17:51:36.345Z,19.40
2019-04-07T17:54:07.898Z,19.40
2019-04-07T17:56:54.973Z,19.40
2019-04-07T17:59:35.078Z,19.40
2019-04-07T18:02:17.846Z,19.50
2019-04-07T18:04:51.234Z,19.50
2019-04-07T18:07:20.120Z,19.50
2019-04-07T18:09:53.407Z,19.40
2019-04-07T18:12:45.426Z,19.40
2019-04-07T18:15:19.115Z,19.40
2019-04-07T18:18:01.672Z,19.40
2019-04-07T18:20:44.450Z,19.30
2019-04-07T18:23:26.657Z,19.30
2019-04-07T18:25:56.832Z,19.20
2019-04-07T18:28:39.182Z,19.20
2019-04-07T18:31:27.478Z,19.20
2019-04-07T18:34:14.240Z,19.10
2019-04-07T18:37:00.813Z,19.10
2019-04-07T18:39:48.929Z,19.10
2019-04-07T18:42:18.281Z,19.00
2019-04-07T18:44:48.341Z,19.00
2019-04-07T18:47:24.349Z,19.00
2019-04-07T18:50:10.415Z,19.00
2019-04-07T18:52:40.948Z,19.00
2019-04-07T18:55:18.082Z,18.90
2019-04-07T18:58:03.262Z,18.90
2019-04-07T19:00:39.253Z,18.90
2019-04-07T19:03:12.017Z,18.90
2019-04-07T19:05:58.625Z,18.80
2019-04-07T19:08:37.880Z,18.70
2019-04-07T19:11:14.794Z,18.60
2019-04-07T19:13:39.618Z,18.60
2019-04-07T19:16:18.878Z,18.50
2019-04-07T19:18:50.589Z,18.50
2019-04-07T19:21:20.900Z,18.40
2019-04-07T19:23:54.006Z,18.40
2019-04-07T19:26:39.012Z,18.30
2019-04-07T19:29:12.034Z,18.30
2019-04-07T19:31:43.446Z,18.20
2019-04-07T19:34:31.804Z,18.20
2019-04-07T19:37:17.281Z,18.10
2019-04-07T19:40:01.222Z,18.10
2019-04-07T19:42:34.920Z,18.10
2019-04-07T19:45:07.082Z,18.00
2019-04-07T19:47:37.243Z,18.00
2019-04-07T19:50:14.928Z,17.90
2019-04-07T19:53:04.972Z,17.90
2019-04-07T19:55:44.442Z,17.90
2019-04-07T19:58:20.448Z,17.80
2019-04-07T20:00:54.331Z,17.80
2019-04-07T20:03:31.897Z,17.70
2019-04-07T20:06:23.061Z,17.60
2019-04-07T20:09:11.189Z,17.50
2019-04-07T20:11:55.977Z,17.40
2019-04-07T20:14:31.823Z,17.30
2019-04-07T20:17:04.564Z,17.20
2019-04-07T20:19:53.575Z,17.20
2019-04-07T20:22:27.185Z,17.10
2019-04-07T20:25:17.112Z,17.10
2019-04-07T20:28:00.660Z,17.10
2019-04-07T20:30:49.537Z,17.10
2019-04-07T20:33:33.070Z,17.00
2019-04-07T20:36:23.872Z,16.90
2019-04-07T20:39:01.782Z,16.80
2019-04-07T20:41:48.354Z,16.70
2019-04-07T20:44:35.649Z,16.60
2019-04-07T20:47:22.974Z,16.50
2019-04-07T20:49:56.746Z,16.50
2019-04-07T20:52:38.697Z,16.40
2019-04-07T20:55:17.553Z,16.30
2019-04-07T20:57:53.914Z,16.20
2019-04-07T21:00:38.265Z,16.10
2019-04-07T21:03:26.789Z,16.10
2019-04-07T21:06:03.295Z,16.00
2019-04-07T21:08:36.258Z,16.00
2019-04-07T21:11:15.320Z,15.90
2019-04-07T21:13:48.293Z,15.80
2019-04-07T21:16:34.407Z,15.70
2019-04-07T21:19:07.749Z,15.70
2019-04-07T21:21:41.650Z,15.60
2019-04-07T21:24:19.026Z,15.60
2019-04-07T21:26:49.114Z,15.50
2019-04-07T21:29:19.344Z,15.40
2019-04-07T21:31:49.595Z,15.40
2019-04-07T21:34:19.642Z,15.40
2019-04-07T21:37:04.709Z,15.30
2019-04-07T21:39:43.812Z,15.20
2019-04-07T21:42:19.321Z,15.20
2019-04-07T21:44:48.773Z,15.20
2019-04-07T21:47:34.122Z,15.10
2019-04-07T21:50:07.484Z,15.00
2019-04-07T21:52:35.866Z,14.90
2019-04-07T21:55:09.877Z,14.90
2019-04-07T21:57:53.606Z,14.90
2019-04-07T22:00:31.628Z,14.80
2019-04-07T22:03:15.827Z,14.80
2019-04-07T22:05:44.156Z,14.80
2019-04-07T22:08:32.677Z,14.70
2019-04-07T22:11:01.536Z,14.70
2019-04-07T22:13:32.860Z,14.70
2019-04-07T22:16:02.925Z,14.60
2019-04-07T22:18:30.076Z,14.60
2019-04-07T22:20:59.177Z,14.50
2019-04-07T22:23:29.967Z,14.50
2019-04-07T22:25:57.920Z,14.50
2019-04-07T22:28:28.508Z,14.40
2019-04-07T22:30:57.264Z,14.40
2019-04-07T22:33:28.674Z,14.40
2019-04-07T22:35:55.823Z,14.30
2019-04-07T22:38:25.244Z,14.30
2019-04-07T22:40:54.334Z,14.30
2019-04-07T22:43:22.939Z,14.30
2019-04-07T22:45:59.295Z,14.20
2019-04-07T22:48:25.276Z,14.20
2019-04-07T22:50:51.823Z,14.20
2019-04-07T22:53:22.553Z,14.10
2019-04-07T22:55:50.590Z,14.10
2019-04-07T22:58:18.972Z,14.10
2019-04-07T23:00:47.617Z,14.10
2019-04-07T23:03:16.023Z,14.00
2019-04-07T23:05:44.442Z,13.90
2019-04-07T23:08:12.856Z,13.90
2019-04-07T23:10:42.158Z,13.90
2019-04-07T23:13:11.225Z,13.90
2019-04-07T23:15:44.325Z,13.90
2019-04-07T23:18:09.722Z,13.90
2019-04-07T23:20:39.680Z,13.80
2019-04-07T23:23:08.860Z,13.80
2019-04-07T23:25:38.316Z,13.80
2019-04-07T23:28:07.022Z,13.70
2019-04-07T23:30:35.486Z,13.70
2019-04-07T23:33:04.208Z,13.60
2019-04-07T23:35:32.991Z,13.60
2019-04-07T23:38:01.600Z,13.60
2019-04-07T23:40:30.165Z,13.60
2019-04-07T23:42:58.682Z,13.50
2019-04-07T23:45:27.392Z,13.50
2019-04-07T23:47:55.907Z,13.50
2019-04-07T23:50:25.156Z,13.40
2019-04-07T23:52:53.888Z,13.40
2019-04-07T23:55:23.961Z,13.40
2019-04-07T23:57:52.436Z,13.40
